aviador You're here:

KPHP Decoded Metar

PHILIP in SD, USA
Report Time2017-04-28 07:55:00
UTC Time2017-04-28 08:12:45
Flight Rules vfr VFR
Wind080° at 09 kt
W.Decomp.*RWY 05: 8.5 kt HW 2.9 kt RCW
RWY 12: 5.7 kt HW 7 kt LCW
W.Rank080° ranks 10
Current wind is above 080° avg. (7.3)
Visibility9999 m
Phenomena:N/A
Clouds:Overcast 055 Hf
Expected CloudBase > 1,200 ft AGL from Temp-Dew spread
Ceiling5,500 ft
Temp03°C (ISA -8)
Dew Point00°C (81% RH)
AAT-2.2°C
QNH1008 hPa
Density Alt1,549 ft
Elevation2,205 ft
Report Wrong Elevation
Raw Report
KPHP 280755Z AUTO 08009KT 10SM OVC055 03/00 A2978 RMK AO2 SLP091
T00330000=

Extra information for KPHP:More info

Metar Taf Metar & Taf Last 4 Metars F.Rules Stats Wind Profile Meteogram Temp Stats Airport Information Weather charts Add Link Nearby VenuesMetar ALERT Operation Metar Decoded Social comments

AIRNAV info for KPHP